Strona główna
METAR-TAF:

METAR-TAF

Lotnisko :

Port lotniczy Locarno

Locarno, Szwajcaria

Szerokość geograficzna: 46-09-55N, Długość geograficzna: 8-52-40E, wysokość: 198 m

Aktualna obserwacja pogody

Raport powstał 1 godzina i 12 minut temu, godzina 09:50 UTC
Wiatr 3 kt od zachód, zmienny między południowo-południowy zachód i północ
Temperatura 25°C
Wilgotność 54%
Ciśnienie 1013 hPa
Widzialność 10 km lub więcej
Mało chmury na wysokości 6000 ft

METAR: LSZL 180950Z 27003KT 210V350 9999 FEW060 25/15 Q1013 RMK BLU+

czas: 13:02 (11:02 UTC)

Prognoza

Raport powstał 5 godziny i 37 minut temu, godzina 05:25 UTC
Prognoza ważna od 18 godzina 06 UTC do 18 godzina 15 UTC
Wiatr 3 kt z kierunków zmiennych
Widzialność 10 km lub więcej
Rozproszone chmury na wysokości 11000 ft
Prawdopodobieństwo 40% :
Przejściowo
od 18 godzina 07 UTC do 18 godzina 15 UTC
Widzialność 10 km lub więcej
Brak chmur poniżej 1500 m i brak chmur cumulonimbus

TAF: LSZL 180525Z 1806/1815 VRB03KT 9999 SCT110 PROB40 TEMPO 1807/1815 CAVOK

Obserwacja i prognoza pogody dla ponad 4000 lotnisk (raport METAR i TAF).

Dostępne stacje oznaczono żółtymi i czerwonymi punktami na mapie.

Najedź kursorem aby zobaczyć nazwę stacji.

Kliknij aby zobaczyć obserwacje i prognozy pogody.

Aby zmienić mapę: kliknij na zielony przycisk z czarnym krzyżykiem, aby powiększyć; na zielony przycisk z myślnikiem, aby pomniejszyć; na zielone strzałki, aby przejść do map sąsiednich.


METAR-TAF: